Thursday, July 2, 2015, 4:06 AM EDT

KRDG, Reading Regional Airport

Location: Reading, PA, United States Lat: 40.367
Local Time: 4:06 AM EDT ( 8:06 GMT) Lon: -75.967
Time Zone: US/Eastern Elev: 344 ft

Show me the last for .
Show Decoded

2015-07-02 03:54 METAR KRDG 020754Z AUTO 00000KT 8SM FEW080 17/15 A2988 RMK AO2 SLP120 T01720150
                 =
2015-07-02 02:54 METAR KRDG 020654Z AUTO 00000KT 10SM CLR 17/14 A2988 RMK AO2 SLP121 T01720144 =
2015-07-02 01:54 METAR KRDG 020554Z AUTO 00000KT 10SM CLR 19/15 A2989 =
2015-07-02 00:54 METAR KRDG 020454Z AUTO 00000KT 10SM CLR 18/16 A2990 RMK AO2 SLP128 T01830156
                 402780178 =
2015-07-01 23:54 METAR KRDG 020354Z AUTO 29004KT 10SM CLR 21/15 A2990 =
2015-07-01 22:54 METAR KRDG 020254Z AUTO 32005KT 10SM CLR 21/15 A2989 RMK AO2 SLP124 T02060150
                 51018 =
2015-07-01 21:54 METAR KRDG 020154Z AUTO 26004KT 10SM CLR 23/15 A2988 =
2015-07-01 20:54 METAR KRDG 020054Z AUTO 25006KT 10SM CLR 24/15 A2986 RMK AO2 SLP112 T02390150 =
2015-07-01 19:54 METAR KRDG 012354Z AUTO 28005KT 10SM CLR 25/15 A2984 RMK AO2 SLP106 T02500150
                 10278 20250 53009 =
2015-07-01 18:54 METAR KRDG 012254Z 27007KT 10SM CLR 27/15 A2982 =
2015-07-01 17:54 METAR KRDG 012154Z 26009KT 10SM CLR 27/14 A2981 RMK AO2 SLP095 T02670144 =
2015-07-01 16:54 METAR KRDG 012054Z 28012G19KT 10SM FEW065 27/14 A2981 =
2015-07-01 15:54 METAR KRDG 011954Z 28014G21KT 10SM FEW048 27/16 A2981 RMK AO2 SLP096 T02720156 =
2015-07-01 14:54 METAR KRDG 011854Z 29010KT 10SM BKN045 BKN060 BKN075 27/17 A2981 RMK AO2 SLP095
                 T02670172 =
2015-07-01 13:54 METAR KRDG 011754Z 27010KT 10SM FEW039 27/17 A2981 RMK AO2 SLP096 T02720172
                 10272 20200 50000 =
2015-07-01 12:54 METAR KRDG 011654Z 26007KT 10SM SCT036 BKN048 BKN055 26/18 A2982 RMK AO2 SLP102
                 T02560178 =
2015-07-01 11:54 METAR KRDG 011554Z 25006KT 10SM BKN032 25/18 A2982 RMK AO2 SLP099 T02500178 =
2015-07-01 10:54 METAR KRDG 011454Z VRB05KT 10SM SCT028 24/17 A2981 RMK AO2 SLP096 T02440172
                 50000 =
2015-07-01 09:54 METAR KRDG 011354Z 26005KT 8SM BR HZ FEW020 24/18 A2981 RMK AO2 SLP096 T02390178
                 =
2015-07-01 07:54 METAR KRDG 011154Z 26005KT 6SM BR HZ CLR 20/18 A2981 =
2015-07-01 06:54 METAR KRDG 011054Z 00000KT 7SM BR FEW015 SCT060 BKN100 19/18 A2979 RMK AO2
                 SLP092 T01940183 =
2015-07-01 05:54 METAR KRDG 010954Z 00000KT 7SM BR FEW023 SCT060 BKN100 19/18 A2978 RMK AO2 RAE25
                 SLP088 P0000 T01940178 =
2015-07-01 05:28 METAR KRDG 010928Z AUTO 25004KT 10SM FEW010 SCT028 BKN044 19/18 A2979 RMK AO2
                 RAE25 P0000 T01940183 =
2015-07-01 05:16 METAR KRDG 010916Z AUTO 23003KT 10SM -RA FEW010 BKN028 OVC120 19/18 A2978 RMK
                 AO2 P0000 T01940183 =
2015-07-01 05:07 METAR KRDG 010907Z AUTO 25005KT 9SM -RA FEW009 SCT028 OVC120 19/18 A2978 RMK AO2
                 P0000 T01940183 =
2015-07-01 04:54 METAR KRDG 010854Z AUTO 00000KT 10SM -RA FEW080 BKN120 19/18 A2977 RMK AO2
                 SLP082 P0008 60018 T01940183 58004 =
2015-07-01 04:44 METAR KRDG 010844Z AUTO 00000KT 9SM -RA SCT011 BKN100 OVC120 19/18 A2977 RMK AO2
                 P0008 T01940183 =
2015-07-01 04:23 METAR KRDG 010823Z AUTO 00000KT 7SM RA BKN012 BKN046 OVC060 20/18 A2979 RMK AO2
                 P0004 T02000183 =
2015-07-01 04:09 METAR KRDG 010809Z AUTO 19004KT 7SM RA FEW012 BKN055 OVC110 20/18 A2980 RMK AO2
                 P0002 T02000178 =

Support USWX by starting your Amazon purchase here.